^^

Nearby METAR Reports

METAR (Meteorological Aerodrome Report) are Airport generated local weather condition reports for use, predominantly by pilots, these reports are also used as part of compliment of data sets required for Chatteris Weathers prediction software - WxSim.

EGUN - Mildenhall Raf, United Kingdom
Distance from station: ESE 19mi, 31km
Updated: 30/03/2020 04:55
Mostly cloudy
Mostly cloudy
 Wind from NNW
Wind: NNW 3 mph , 6 km/h
Temperature: 2°C
Dew Point: -1°C
Humidity: 81%
Barometer: 1036.6 hPa
Clouds: Mostly cloudy
Visibility: 6 miles , 10 km
Cloud details: Few Clouds 884 m
Mostly cloudy 1341 m
2020/03/30 03:55 EGUN 300355Z 34003KT 9999 FEW029 BKN044 02/M01 A3061 RMK AO2A SLP369 WND DATA ESTMD ALSTG/SLP ESTMD RVRNO
EGSC - Cambridge, United Kingdom
Distance from station: SSE 20mi, 32km
Updated: 27/03/2020 17:50
NOT Current
Clear
Clear
 Wind from NNE
Wind: NNE 17 mph , 28 km/h
Temperature: 9°C
Wind Chill: 6°C
Dew Point: 0°C
Humidity: 54%
Barometer: 1024 hPa
Summary: Clear
Visibility: greater than 7 miles , 10 km
2020/03/27 17:50 EGSC 271750Z 03015KT CAVOK 09/M00 Q1024
 
EGUL - Lakenheath Raf, United Kingdom
Distance from station: E 22mi, 36km
Updated: 30/03/2020 04:56
Mostly cloudy
Mostly cloudy
 Wind from NW
Wind: NW 5 mph , 7 km/h
Temperature: 3°C
Wind Chill: 1°C
Dew Point: 0°C
Humidity: 81%
Barometer: 1036.2 hPa
Clouds: Mostly cloudy
Visibility: 6 miles , 10 km
Cloud details: Few Clouds 1006 m
Mostly cloudy 1433 m
2020/03/30 03:56 EGUL 300356Z AUTO 31004KT 9999 FEW033 BKN047 03/00 A3060 RMK AO2 RAB20E29DZB29E30 SLP366 P0000 T00251003 $
EGXT - Wittering Raf, United Kingdom
Distance from station: WNW 24mi, 38km
Updated: 30/03/2020 04:50
Partly cloudy
Partly cloudy
 Wind from NW
Wind: NW 10 mph , 17 km/h
Temperature: 1°C
Wind Chill: -3°C
Dew Point: -3°C
Humidity: 75%
Barometer: 1036 hPa
Clouds: Partly cloudy
Visibility: 6 miles , 10 km
Cloud details: Partly cloudy 1524 m
2020/03/30 03:50 EGXT 300350Z AUTO 31009KT 9999 SCT050/// 01/M03 Q1036
 
EGYH - Holbeach (aut), United Kingdom
Distance from station: N 27mi, 44km
Updated: 26/03/2020 19:50
NOT Current
Clear
Clear
 Wind from E
Wind: E 20 mph , 31 km/h
Temperature: 6°C
Wind Chill: 1°C
Dew Point: 2°C
Humidity: 76%
Barometer: 1025 hPa
Summary: Clear
Visibility: greater than 7 miles , 10 km
2020/03/26 19:50 EGYH 261950Z 08017KT CAVOK 06/02 Q1025 RMK BLU
EGSS - Stansted Airport, United Kingdom
Distance from station: SE 11mi, 18km
Updated: 30/03/2020 04:50
Overcast
Overcast
 Wind from NNW
Wind: NNW 6 mph , 9 km/h
Temperature: 1°C
Wind Chill: -2°C
Dew Point: 0°C
Humidity: 93%
Barometer: 1036 hPa
Clouds: Overcast
Visibility: 6 miles , 10 km
Cloud details: Overcast 1311 m
2020/03/30 03:50 EGSS 300350Z AUTO 34005KT 9999 OVC043 01/M00 Q1036
 
EGGW - Luton Airport, United Kingdom
Distance from station: WSW 19mi, 31km
Updated: 30/03/2020 04:50
Overcast
Overcast
 Wind from NNW
Wind: NNW 7 mph , 11 km/h
Temperature: 1°C
Wind Chill: -2°C
Dew Point: -1°C
Humidity: 87%
Barometer: 1036 hPa
Clouds: Overcast
Visibility: 6 miles , 10 km
Cloud details: Mostly cloudy 1158 m
Overcast 1494 m
2020/03/30 03:50 EGGW 300350Z AUTO 34006KT 9999 BKN038 OVC049 01/M01 Q1036
EGLL - London/Heathrow, United Kingdom
Distance from station: SSW 41mi, 66km
Updated: 30/03/2020 04:50
Clear
Clear
 Wind from N
Wind: N 6 mph , 9 km/h
Temperature: 2°C
Wind Chill: -1°C
Dew Point: -1°C
Humidity: 81%
Barometer: 1037 hPa
Clouds: Clear
Visibility: 6 miles , 10 km
2020/03/30 03:50 EGLL 300350Z AUTO 36005KT 320V040 9999 NCD 02/M01 Q1037 NOSIG
 
EGKK - London/Gatwick A, United Kingdom
Distance from station: S 60mi, 97km
Updated: 30/03/2020 04:50
Clear
Clear
 Wind from N
Wind: N 9 mph , 15 km/h
Temperature: 3°C
Wind Chill: -1°C
Dew Point: -1°C
Humidity: 75%
Barometer: 1036 hPa
Summary: Clear
Visibility: greater than 7 miles , 10 km
2020/03/30 03:50 EGKK 300350Z 01008KT CAVOK 03/M01 Q1036
EGUY - Wyton Raf, United Kingdom
Distance from station: SW 11mi, 18km
Updated: 04/10/2015 09:50
NOT Current
Haze, Clear
Haze, Clear
 Wind from SSE
Wind: SSE 2 mph , 4 km/h
Temperature: 11°C
Dew Point: 7°C
Humidity: 77%
Barometer: 1014 hPa
Summary: Haze
Clouds: Clear
Visibility: 4 miles , 6 km
2015/10/04 08:50 EGUY 040850Z 15002KT 6000 HZ SKC 11/07 Q1014 WHT

Met Office METAR data link, decoding METAR data code.